Time,TemperatureF,DewpointF,PressureIn,WindDirection,WindDirectionDegrees,WindSpeedMPH,WindSpeedGustMPH,Humidity,HourlyPrecipIn,Conditions,Clouds,dailyrainin,SoftwareType,DateUTC
2013-07-09 00:00:00,83.0,77.7,30.01,East,100,6.0,10.0,84,0.00,CLR,,0.00,WeatherDisplay:10.37,2013-07-09 06:00:00,
2013-07-09 00:15:00,82.9,77.6,30.00,East,83,5.0,10.0,84,0.00,CLR,,0.00,WeatherDisplay:10.37,2013-07-09 06:15:00,
2013-07-09 00:30:00,82.8,77.5,30.00,East,86,7.0,10.0,84,0.00,CLR,,0.00,WeatherDisplay:10.37,2013-07-09 06:30:00,
2013-07-09 00:45:00,82.8,77.5,30.00,East,97,7.0,10.0,84,0.00,CLR,,0.00,WeatherDisplay:10.37,2013-07-09 06:45:00,
2013-07-09 01:00:00,82.8,77.8,30.00,East,95,6.0,9.0,85,0.00,CLR,,0.00,WeatherDisplay:10.37,2013-07-09 07:00:00,
2013-07-09 01:15:00,82.6,77.6,29.99,East,81,5.0,9.0,85,0.00,CLR,,0.00,WeatherDisplay:10.37,2013-07-09 07:15:00,
2013-07-09 01:30:00,82.4,77.4,29.99,East,85,3.0,9.0,85,0.00,CLR,,0.00,WeatherDisplay:10.37,2013-07-09 07:30:00,
2013-07-09 01:45:00,82.4,77.4,29.98,ENE,75,3.0,9.0,85,0.00,CLR,,0.00,WeatherDisplay:10.37,2013-07-09 07:45:00,
2013-07-09 02:00:00,82.4,77.0,29.98,East,92,8.0,10.0,84,0.00,CLR,,0.00,WeatherDisplay:10.37,2013-07-09 08:00:00,
2013-07-09 02:15:00,82.6,76.9,29.98,East,86,8.0,12.0,83,0.00,CLR,,0.00,WeatherDisplay:10.37,2013-07-09 08:15:00,
2013-07-09 02:30:00,82.7,77.0,29.97,East,82,2.0,10.0,83,0.00,CLR,,0.00,WeatherDisplay:10.37,2013-07-09 08:30:00,
2013-07-09 02:45:00,82.6,76.9,29.97,East,83,3.0,9.0,83,0.00,CLR,,0.00,WeatherDisplay:10.37,2013-07-09 08:45:00,
2013-07-09 03:00:00,82.4,77.1,29.97,ENE,78,8.0,10.0,84,0.00,CLR,,0.00,WeatherDisplay:10.37,2013-07-09 09:00:00,
2013-07-09 03:15:00,82.4,77.5,29.97,East,85,5.0,10.0,85,0.00,CLR,,0.00,WeatherDisplay:10.37,2013-07-09 09:15:00,
2013-07-09 03:30:00,82.4,77.1,29.97,ENE,76,5.0,10.0,84,0.00,CLR,,0.00,WeatherDisplay:10.37,2013-07-09 09:30:00,
2013-07-09 03:45:00,82.4,76.7,29.97,East,94,7.0,12.0,83,0.00,CLR,,0.00,WeatherDisplay:10.37,2013-07-09 09:45:00,
2013-07-09 04:00:00,82.6,77.0,29.97,East,94,7.0,13.0,83,0.00,CLR,,0.00,WeatherDisplay:10.37,2013-07-09 10:00:00,
2013-07-09 04:15:00,82.4,76.7,29.97,East,84,6.0,12.0,83,0.00,CLR,,0.00,WeatherDisplay:10.37,2013-07-09 10:15:00,
2013-07-09 04:30:00,82.3,77.0,29.98,East,90,6.0,10.0,84,0.00,CLR,,0.00,WeatherDisplay:10.37,2013-07-09 10:30:00,
2013-07-09 04:45:00,82.5,77.2,29.98,East,85,8.0,10.0,84,0.00,CLR,,0.00,WeatherDisplay:10.37,2013-07-09 10:45:00,
2013-07-09 05:00:00,82.6,77.3,29.98,East,85,10.0,13.0,84,0.00,CLR,,0.00,WeatherDisplay:10.37,2013-07-09 11:00:00,
2013-07-09 05:15:00,82.7,76.6,29.99,East,97,9.0,14.0,82,0.00,CLR,,0.00,WeatherDisplay:10.37,2013-07-09 11:15:00,
2013-07-09 05:30:00,82.7,77.0,29.99,East,98,9.0,13.0,83,0.00,CLR,,0.00,WeatherDisplay:10.37,2013-07-09 11:30:00,
2013-07-09 05:45:00,82.8,77.1,29.99,East,90,10.0,15.0,83,0.00,CLR,,0.00,WeatherDisplay:10.37,2013-07-09 11:45:00,
2013-07-09 06:00:00,82.9,76.8,30.00,East,94,8.0,15.0,82,0.00,CLR,,0.00,WeatherDisplay:10.37,2013-07-09 12:00:00,
2013-07-09 06:15:00,83.2,77.1,30.00,East,99,6.0,13.0,82,0.00,CLR,,0.00,WeatherDisplay:10.37,2013-07-09 12:15:00,
2013-07-09 06:30:00,83.6,77.5,30.01,East,92,7.0,14.0,82,0.00,CLR,,0.00,WeatherDisplay:10.37,2013-07-09 12:30:00,
2013-07-09 06:45:00,84.0,77.2,30.01,East,87,7.0,13.0,80,0.00,CLR,,0.00,WeatherDisplay:10.37,2013-07-09 12:45:00,
2013-07-09 07:00:00,84.3,76.7,30.01,East,81,8.0,12.0,78,0.00,CLR,,0.00,WeatherDisplay:10.37,2013-07-09 13:00:00,
2013-07-09 07:15:00,84.6,78.1,30.02,ENE,70,5.0,10.0,81,0.00,CLR,,0.00,WeatherDisplay:10.37,2013-07-09 13:15:00,
2013-07-09 07:30:00,85.0,78.1,30.02,ENE,71,7.0,10.0,80,0.00,CLR,,0.00,WeatherDisplay:10.37,2013-07-09 13:30:00,
2013-07-09 07:45:00,85.1,77.5,30.02,East,79,7.0,12.0,78,0.00,CLR,,0.00,WeatherDisplay:10.37,2013-07-09 13:45:00,
2013-07-09 08:00:00,85.9,78.2,30.02,ENE,69,6.0,12.0,78,0.00,CLR,,0.00,WeatherDisplay:10.37,2013-07-09 14:00:00,
2013-07-09 08:15:00,86.3,77.9,30.03,ENE,76,5.0,9.0,76,0.00,CLR,,0.00,WeatherDisplay:10.37,2013-07-09 14:15:00,
2013-07-09 08:30:00,86.6,78.1,30.04,ENE,69,5.0,9.0,76,0.00,CLR,,0.00,WeatherDisplay:10.37,2013-07-09 14:30:00,
2013-07-09 08:45:00,87.1,78.6,30.04,ENE,67,3.0,10.0,76,0.00,CLR,,0.00,WeatherDisplay:10.37,2013-07-09 14:45:00,
2013-07-09 09:00:00,87.3,78.4,30.05,ENE,68,2.0,9.0,75,0.00,CLR,,0.00,WeatherDisplay:10.37,2013-07-09 15:00:00,
2013-07-09 09:15:00,87.5,79.0,30.05,NE,51,2.0,8.0,76,0.00,CLR,,0.00,WeatherDisplay:10.37,2013-07-09 15:15:00,
2013-07-09 09:30:00,87.7,79.2,30.05,NE,54,5.0,10.0,76,0.00,CLR,,0.00,WeatherDisplay:10.37,2013-07-09 15:30:00,
2013-07-09 09:45:00,88.1,79.2,30.05,NE,53,3.0,12.0,75,0.00,CLR,,0.00,WeatherDisplay:10.37,2013-07-09 15:45:00,
2013-07-09 10:00:00,87.3,78.8,30.05,NE,55,5.0,12.0,76,0.00,CLR,,0.00,WeatherDisplay:10.37,2013-07-09 16:00:00,
2013-07-09 10:15:00,87.8,78.9,30.05,ENE,62,6.0,12.0,75,0.00,CLR,,0.00,WeatherDisplay:10.37,2013-07-09 16:15:00,
2013-07-09 10:30:00,88.5,80.0,30.05,ENE,58,5.0,10.0,76,0.00,CLR,,0.00,WeatherDisplay:10.37,2013-07-09 16:30:00,
2013-07-09 10:45:00,89.0,80.0,30.06,NE,56,6.0,12.0,75,0.00,CLR,,0.00,WeatherDisplay:10.37,2013-07-09 16:45:00,
2013-07-09 11:00:00,86.8,79.2,30.06,East,86,10.0,15.0,78,0.00,CLR,,0.00,WeatherDisplay:10.37,2013-07-09 17:00:00,
2013-07-09 11:15:00,84.4,77.6,30.06,East,79,5.0,16.0,80,0.00,CLR,,0.00,WeatherDisplay:10.37,2013-07-09 17:15:00,
2013-07-09 11:30:00,86.3,79.4,30.05,East,93,6.0,12.0,80,0.00,CLR,,0.00,WeatherDisplay:10.37,2013-07-09 17:30:00,
2013-07-09 11:45:00,86.3,79.4,30.05,East,87,6.0,15.0,80,0.00,CLR,,0.00,WeatherDisplay:10.37,2013-07-09 17:45:00,
2013-07-09 12:00:00,86.6,79.7,30.05,East,94,7.0,14.0,80,0.00,CLR,,0.00,WeatherDisplay:10.37,2013-07-09 18:00:00,
2013-07-09 12:15:00,86.4,79.5,30.05,East,81,6.0,13.0,80,0.00,CLR,,0.00,WeatherDisplay:10.37,2013-07-09 18:15:00,
2013-07-09 12:30:00,86.6,78.5,30.04,East,91,12.0,14.0,77,0.00,CLR,,0.00,WeatherDisplay:10.37,2013-07-09 18:30:00,
2013-07-09 12:45:00,87.0,78.9,30.04,East,91,12.0,14.0,77,0.00,CLR,,0.00,WeatherDisplay:10.37,2013-07-09 18:45:00,
2013-07-09 13:00:00,86.7,79.8,30.03,East,100,3.0,13.0,80,0.00,CLR,,0.00,WeatherDisplay:10.37,2013-07-09 19:00:00,
2013-07-09 13:15:00,86.6,79.3,30.02,East,91,9.0,15.0,79,0.00,CLR,,0.00,WeatherDisplay:10.37,2013-07-09 19:15:00,
2013-07-09 13:30:00,87.0,78.9,30.01,East,91,7.0,15.0,77,0.00,CLR,,0.00,WeatherDisplay:10.37,2013-07-09 19:30:00,
2013-07-09 13:45:00,86.6,79.3,30.01,East,88,10.0,16.0,79,0.00,CLR,,0.00,WeatherDisplay:10.37,2013-07-09 19:45:00,
2013-07-09 14:00:00,86.6,78.1,30.00,East,100,8.0,16.0,76,0.00,CLR,,0.00,WeatherDisplay:10.37,2013-07-09 20:00:00,
2013-07-09 14:15:00,87.3,79.2,30.00,East,101,5.0,14.0,77,0.00,CLR,,0.00,WeatherDisplay:10.37,2013-07-09 20:15:00,
2013-07-09 14:30:00,87.3,79.6,30.00,ESE,104,6.0,13.0,78,0.00,CLR,,0.00,WeatherDisplay:10.37,2013-07-09 20:30:00,
2013-07-09 14:45:00,86.7,79.0,30.00,ESE,105,6.0,13.0,78,0.00,CLR,,0.00,WeatherDisplay:10.37,2013-07-09 20:45:00,
2013-07-09 15:00:00,86.4,78.7,30.00,East,91,9.0,15.0,78,0.00,CLR,,0.00,WeatherDisplay:10.37,2013-07-09 21:00:00,
2013-07-09 15:15:00,86.1,78.8,29.99,East,92,9.0,14.0,79,0.00,CLR,,0.00,WeatherDisplay:10.37,2013-07-09 21:15:00,
2013-07-09 15:30:00,86.1,78.8,29.99,East,95,8.0,14.0,79,0.00,CLR,,0.00,WeatherDisplay:10.37,2013-07-09 21:30:00,
2013-07-09 15:45:00,85.1,78.3,29.99,ESE,119,12.0,18.0,80,0.00,CLR,,0.00,WeatherDisplay:10.37,2013-07-09 21:45:00,
2013-07-09 16:00:00,84.9,78.4,29.98,East,97,10.0,14.0,81,0.00,CLR,,0.00,WeatherDisplay:10.37,2013-07-09 22:00:00,
2013-07-09 16:15:00,85.2,78.7,29.98,East,99,7.0,16.0,81,0.00,CLR,,0.00,WeatherDisplay:10.37,2013-07-09 22:15:00,
2013-07-09 16:26:00,85.2,79.8,29.98,ESE,109,5.0,15.0,84,0.00,CLR,,0.00,WeatherDisplay:10.37,2013-07-09 22:26:00,
2013-07-09 16:45:00,85.0,78.2,29.98,East,99,12.0,14.0,80,0.00,CLR,,0.00,WeatherDisplay:10.37,2013-07-09 22:45:00,
2013-07-09 17:00:00,85.0,78.5,29.98,East,92,7.0,14.0,81,0.00,CLR,,0.00,WeatherDisplay:10.37,2013-07-09 23:00:00,
2013-07-09 17:15:00,84.5,78.4,29.98,East,93,12.0,16.0,82,0.00,CLR,,0.00,WeatherDisplay:10.37,2013-07-09 23:15:00,
2013-07-09 17:30:00,84.5,78.8,29.99,East,87,7.0,15.0,83,0.00,CLR,,0.00,WeatherDisplay:10.37,2013-07-09 23:30:00,
2013-07-09 17:45:00,84.4,78.7,30.00,East,86,7.0,15.0,83,0.00,CLR,,0.00,WeatherDisplay:10.37,2013-07-09 23:45:00,
2013-07-09 18:00:00,84.4,78.7,30.00,East,99,6.0,14.0,83,0.00,CLR,,0.00,WeatherDisplay:10.37,2013-07-10 00:00:00,
2013-07-09 18:15:00,84.1,77.7,30.00,East,93,9.0,15.0,81,0.00,CLR,,0.00,WeatherDisplay:10.37,2013-07-10 00:15:00,
2013-07-09 18:30:00,84.1,78.8,30.01,East,91,8.0,16.0,84,0.00,CLR,,0.00,WeatherDisplay:10.37,2013-07-10 00:30:00,
2013-07-09 18:45:00,84.0,78.3,30.01,East,84,9.0,15.0,83,0.00,CLR,,0.00,WeatherDisplay:10.37,2013-07-10 00:45:00,
2013-07-09 19:00:00,84.0,78.6,30.01,East,88,9.0,15.0,84,0.00,CLR,,0.00,WeatherDisplay:10.37,2013-07-10 01:00:00,
2013-07-09 19:15:00,84.1,78.7,30.01,East,100,9.0,16.0,84,0.00,CLR,,0.00,WeatherDisplay:10.37,2013-07-10 01:15:00,
2013-07-09 19:30:00,84.2,77.7,30.01,ESE,114,13.0,16.0,81,0.00,CLR,,0.00,WeatherDisplay:10.37,2013-07-10 01:30:00,
2013-07-09 19:45:00,84.0,77.9,30.01,East,101,13.0,16.0,82,0.00,CLR,,0.00,WeatherDisplay:10.37,2013-07-10 01:45:00,
2013-07-09 20:00:00,84.0,78.7,30.01,East,96,12.0,16.0,84,0.00,CLR,,0.00,WeatherDisplay:10.37,2013-07-10 02:00:00,
2013-07-09 20:15:00,84.0,78.3,30.01,East,91,9.0,16.0,83,0.00,CLR,,0.00,WeatherDisplay:10.37,2013-07-10 02:15:00,
2013-07-09 20:30:00,84.0,77.9,30.02,East,86,12.0,15.0,82,0.00,CLR,,0.00,WeatherDisplay:10.37,2013-07-10 02:30:00,
2013-07-09 20:45:00,84.0,78.3,30.03,East,88,9.0,16.0,83,0.00,CLR,,0.00,WeatherDisplay:10.37,2013-07-10 02:45:00,
2013-07-09 21:00:00,84.0,77.9,30.03,East,87,10.0,14.0,82,0.00,CLR,,0.00,WeatherDisplay:10.37,2013-07-10 03:00:00,
2013-07-09 21:15:00,83.9,78.2,30.04,East,90,10.0,14.0,83,0.00,CLR,,0.00,WeatherDisplay:10.37,2013-07-10 03:15:00,
2013-07-09 21:30:00,83.9,78.6,30.03,East,92,7.0,15.0,84,0.00,CLR,,0.00,WeatherDisplay:10.37,2013-07-10 03:30:00,
2013-07-09 21:45:00,83.9,78.9,30.03,East,100,6.0,15.0,85,0.00,CLR,,0.00,WeatherDisplay:10.37,2013-07-10 03:45:00,
2013-07-09 22:00:00,83.9,78.9,30.03,ESE,116,6.0,12.0,85,0.00,CLR,,0.00,WeatherDisplay:10.37,2013-07-10 04:00:00,
2013-07-09 22:15:00,84.0,78.6,30.03,ESE,109,8.0,16.0,84,0.00,CLR,,0.00,WeatherDisplay:10.37,2013-07-10 04:15:00,
2013-07-09 22:30:00,84.0,79.0,30.03,East,98,8.0,13.0,85,0.00,CLR,,0.00,WeatherDisplay:10.37,2013-07-10 04:30:00,
2013-07-09 22:45:00,83.9,78.5,30.03,East,88,5.0,13.0,84,0.00,CLR,,0.00,WeatherDisplay:10.37,2013-07-10 04:45:00,
2013-07-09 23:00:00,83.9,78.5,30.03,East,99,6.0,15.0,84,0.00,CLR,,0.00,WeatherDisplay:10.37,2013-07-10 05:00:00,
2013-07-09 23:15:00,83.8,78.8,30.02,East,99,9.0,13.0,85,0.00,CLR,,0.00,WeatherDisplay:10.37,2013-07-10 05:15:00,
2013-07-09 23:30:00,83.8,78.8,30.02,East,97,5.0,16.0,85,0.00,CLR,,0.00,WeatherDisplay:10.37,2013-07-10 05:30:00,
2013-07-09 23:45:00,83.6,78.6,30.01,ESE,102,5.0,15.0,85,0.00,CLR,,0.00,WeatherDisplay:10.37,2013-07-10 05:45:00,